• Join FlightAware (Why Join?)
  • Login
  • US Flag 
04:04AM EDT


 

Airport Tracker/Info


-or-


 

Live Flight TrackerFlight Track Log ✈ CTL15 ✈ 02-May-2012 ✈ KBKL - KHAO

Flight Track Log - Related Links

Times and Time Zones

All times are in EDT time to prevent confusion due to time zone crossing. See the CTL15 flight status page for this flight to view local times or setup timezone preferences in your user account.

Time Position Orientation Groundspeed Altitude Reporting Facility
EDT Latitude Longitude Course Direction KTS MPH feet Rate Location/Type
08:51PM 41.5344 -81.7953 212° Southwest 98 113 5,100  Level Cleveland Center
08:52PM 41.5114 -81.8142 211° Southwest 93 107 5,900 420 Climbing Cleveland Center
08:53PM 41.4842 -81.8358 211° Southwest 122 140 6,000 60 Climbing Cleveland Center
08:54PM 41.4506 -81.8631 214° Southwest 146 168 6,100  Climbing Cleveland Center
08:55PM 41.4147 -81.8956 214° Southwest 153 176 6,100  Level Cleveland Center
08:56PM 41.3789 -81.9281 224° Southwest 152 175 6,100  Level Cleveland Center
08:57PM 41.3469 -81.9689 216° Southwest 148 170 6,100 -60 Level Cleveland Center
08:58PM 41.3133 -82.0014 226° Southwest 152 175 6,000 -60 Descending Cleveland Center
08:59PM 41.2856 -82.0394 214° Southwest 147 169 6,000  Level Cleveland Center
09:00PM 41.2497 -82.0717 227° Southwest 151 174 6,000  Level Cleveland Center
09:23PM 40.6058 -82.9611 232° Southwest 145 167 6,100  Climbing Indianapolis Center
09:25PM 40.5728 -83.0161 229° Southwest 147 169 6,000 -60 Descending Indianapolis Center
09:26PM 40.5439 -83.0600 223° Southwest 145 167 6,000  Level Indianapolis Center
09:27PM 40.5169 -83.0928 227° Southwest 145 167 6,100 60 Climbing Indianapolis Center
09:28PM 40.4900 -83.1314 227° Southwest 143 165 6,200  Climbing Indianapolis Center
09:29PM 40.4589 -83.1750 217° Southwest 146 168 6,200 -60 Level Indianapolis Center
09:30PM 40.4256 -83.2081 223° Southwest 146 168 6,100  Descending Indianapolis Center
09:31PM 40.3986 -83.2408 221° Southwest 146 168 6,200 -60 Climbing Indianapolis Center
09:32PM 40.3675 -83.2764 228° Southwest 145 167 6,000 -60 Descending Indianapolis Center
09:33PM 40.3467 -83.3064 229° Southwest 143 165 6,100  Climbing Indianapolis Center
09:34PM 40.3156 -83.3528 223° Southwest 142 163 6,000 -60 Descending Indianapolis Center
09:35PM 40.2864 -83.3883 219° Southwest 144 166 6,000  Level Indianapolis Center
09:36PM 40.2553 -83.4211 210° Southwest 144 166 6,000  Level Indianapolis Center
09:37PM 40.2156 -83.4511 208° Southwest 146 168 6,000 60 Level Indianapolis Center
09:38PM 40.1803 -83.4756 206° Southwest 146 168 6,200 60 Climbing Indianapolis Center
09:39PM 40.1428 -83.5000 208° Southwest 148 170 6,200 -60 Level Indianapolis Center
09:40PM 40.1156 -83.5189 212° Southwest 147 169 6,100 -120 Descending Indianapolis Center
09:41PM 40.0761 -83.5517 220° Southwest 150 173 6,000  Descending Indianapolis Center
09:42PM 40.0467 -83.5842 213° Southwest 144 166 6,100  Climbing Indianapolis Center
09:43PM 40.0114 -83.6139 213° Southwest 147 169 6,000 -60 Descending Indianapolis Center
09:44PM 39.9758 -83.6436 221° Southwest 145 167 6,000  Level Indianapolis Center
09:45PM 39.9425 -83.6817 218° Southwest 148 170 6,000  Level Indianapolis Center
09:46PM 39.9111 -83.7139 236° Southwest 145 167 6,100  Climbing Indianapolis Center
09:47PM 39.8883 -83.7572 238° Southwest 145 167 6,000 -60 Descending Indianapolis Center
09:48PM 39.8672 -83.8006 231° Southwest 144 166 6,000  Level Indianapolis Center
09:49PM 39.8422 -83.8408 227° Southwest 146 168 6,100 60 Climbing Indianapolis Center
09:50PM 39.8150 -83.8786 237° Southwest 142 163 6,200 -120 Climbing Indianapolis Center
09:51PM 39.7919 -83.9244 236° Southwest 146 168 5,900 -420 Descending Indianapolis Center
09:52PM 39.7708 -83.9650 223° Southwest 152 175 5,500 -480 Descending Indianapolis Center
09:53PM 39.7353 -84.0078 228° Southwest 159 183 5,000 -540 Descending Indianapolis Center
09:55PM 39.6833 -84.0833 237° Southwest 159 183 4,100 -360 Descending Cincinnati TRACON
09:56PM 39.6667 -84.1167 229° Southwest 146 168 4,000  Descending Cincinnati TRACON
09:57PM 39.6333 -84.1667 237° Southwest 143 165 4,100  Climbing Cincinnati TRACON
09:58PM 39.6167 -84.2000 218° Southwest 141 162 4,100  Level Cincinnati TRACON
09:58PM 39.5833 -84.2333 218° Southwest 140 161 4,100  Level Cincinnati TRACON
09:59PM 39.5500 -84.2667 237° Southwest 143 165 4,100 -120 Level Cincinnati TRACON
10:00PM 39.5333 -84.3000 218° Southwest 144 166 3,900 -360 Descending Cincinnati TRACON
10:01PM 39.5000 -84.3333 218° Southwest 154 177 3,400 -600 Descending Cincinnati TRACON
10:02PM 39.4667 -84.3667 218° Southwest 152 175 2,800 -600 Descending Cincinnati TRACON